Aviation Digital Data Service (ADDS)

Output produced by TAFs form (0335 UTC 28 June 2017)
found at http://www.aviationweather.gov/adds/tafs/
 
KGSO 272329Z 2800/2824 VRB04KT P6SM FEW060 
     FM281800 19006KT P6SM FEW060